sensor_id;sensor_type;location;lat;lon;timestamp;P1;durP1;ratioP1;P2;durP2;ratioP2
3993;SDS011;2011;48.238;13.948;2022-12-11T00:00:36;58.58;;;26.88;;
3993;SDS011;2011;48.238;13.948;2022-12-11T00:03:03;55.58;;;25.55;;
3993;SDS011;2011;48.238;13.948;2022-12-11T00:05:30;58.80;;;26.77;;
3993;SDS011;2011;48.238;13.948;2022-12-11T00:07:57;60.15;;;27.05;;
3993;SDS011;2011;48.238;13.948;2022-12-11T00:10:26;62.25;;;27.90;;
3993;SDS011;2011;48.238;13.948;2022-12-11T00:12:53;56.50;;;27.35;;
3993;SDS011;2011;48.238;13.948;2022-12-11T00:15:19;66.63;;;28.10;;
3993;SDS011;2011;48.238;13.948;2022-12-11T00:17:46;63.40;;;27.33;;
3993;SDS011;2011;48.238;13.948;2022-12-11T00:20:13;64.88;;;27.40;;
3993;SDS011;2011;48.238;13.948;2022-12-11T00:22:40;60.63;;;27.38;;
3993;SDS011;2011;48.238;13.948;2022-12-11T00:25:07;62.15;;;27.55;;
3993;SDS011;2011;48.238;13.948;2022-12-11T00:27:36;66.18;;;27.55;;
3993;SDS011;2011;48.238;13.948;2022-12-11T00:30:03;69.13;;;29.27;;
3993;SDS011;2011;48.238;13.948;2022-12-11T00:32:31;58.97;;;28.02;;
3993;SDS011;2011;48.238;13.948;2022-12-11T00:34:58;61.33;;;27.30;;
3993;SDS011;2011;48.238;13.948;2022-12-11T00:37:25;62.28;;;27.75;;
3993;SDS011;2011;48.238;13.948;2022-12-11T00:39:52;58.22;;;28.42;;
3993;SDS011;2011;48.238;13.948;2022-12-11T00:42:19;64.95;;;27.20;;
3993;SDS011;2011;48.238;13.948;2022-12-11T00:44:48;60.63;;;27.23;;
3993;SDS011;2011;48.238;13.948;2022-12-11T00:47:14;59.42;;;27.52;;
3993;SDS011;2011;48.238;13.948;2022-12-11T00:49:41;52.33;;;25.25;;
3993;SDS011;2011;48.238;13.948;2022-12-11T00:52:08;47.83;;;24.60;;
3993;SDS011;2011;48.238;13.948;2022-12-11T00:54:36;50.85;;;25.42;;
3993;SDS011;2011;48.238;13.948;2022-12-11T00:57:02;59.55;;;26.38;;
3993;SDS011;2011;48.238;13.948;2022-12-11T00:59:29;51.33;;;25.80;;
3993;SDS011;2011;48.238;13.948;2022-12-11T01:01:58;54.63;;;24.13;;
3993;SDS011;2011;48.238;13.948;2022-12-11T01:04:25;50.08;;;23.27;;
3993;SDS011;2011;48.238;13.948;2022-12-11T01:06:52;51.50;;;23.08;;
3993;SDS011;2011;48.238;13.948;2022-12-11T01:09:18;48.15;;;22.65;;
3993;SDS011;2011;48.238;13.948;2022-12-11T01:12:03;51.35;;;24.00;;
3993;SDS011;2011;48.238;13.948;2022-12-11T01:14:30;46.15;;;21.17;;
3993;SDS011;2011;48.238;13.948;2022-12-11T01:16:58;52.08;;;22.00;;
3993;SDS011;2011;48.238;13.948;2022-12-11T01:19:25;50.28;;;23.00;;
3993;SDS011;2011;48.238;13.948;2022-12-11T01:21:52;44.65;;;22.30;;
3993;SDS011;2011;48.238;13.948;2022-12-11T01:24:19;46.85;;;21.92;;
3993;SDS011;2011;48.238;13.948;2022-12-11T01:26:46;47.83;;;21.98;;
3993;SDS011;2011;48.238;13.948;2022-12-11T01:29:13;47.67;;;23.13;;
3993;SDS011;2011;48.238;13.948;2022-12-11T01:31:40;46.33;;;22.42;;
3993;SDS011;2011;48.238;13.948;2022-12-11T01:34:08;53.95;;;22.77;;
3993;SDS011;2011;48.238;13.948;2022-12-11T01:36:35;52.55;;;23.42;;
3993;SDS011;2011;48.238;13.948;2022-12-11T01:39:02;54.97;;;23.70;;
3993;SDS011;2011;48.238;13.948;2022-12-11T01:41:29;50.53;;;23.00;;
3993;SDS011;2011;48.238;13.948;2022-12-11T01:43:57;51.15;;;22.90;;
3993;SDS011;2011;48.238;13.948;2022-12-11T01:46:26;55.40;;;25.77;;
3993;SDS011;2011;48.238;13.948;2022-12-11T01:48:53;55.22;;;23.73;;
3993;SDS011;2011;48.238;13.948;2022-12-11T01:51:22;51.75;;;25.02;;
3993;SDS011;2011;48.238;13.948;2022-12-11T01:53:50;50.50;;;24.15;;
3993;SDS011;2011;48.238;13.948;2022-12-11T01:56:20;49.17;;;24.00;;
3993;SDS011;2011;48.238;13.948;2022-12-11T01:58:48;45.92;;;22.23;;
3993;SDS011;2011;48.238;13.948;2022-12-11T02:01:19;56.42;;;25.15;;
3993;SDS011;2011;48.238;13.948;2022-12-11T02:03:51;56.42;;;25.23;;
3993;SDS011;2011;48.238;13.948;2022-12-11T02:06:31;60.97;;;25.90;;
3993;SDS011;2011;48.238;13.948;2022-12-11T02:09:01;58.13;;;25.15;;
3993;SDS011;2011;48.238;13.948;2022-12-11T02:11:32;56.22;;;24.88;;
3993;SDS011;2011;48.238;13.948;2022-12-11T02:14:08;54.65;;;23.45;;
3993;SDS011;2011;48.238;13.948;2022-12-11T02:16:42;64.13;;;25.75;;
3993;SDS011;2011;48.238;13.948;2022-12-11T02:19:17;54.97;;;24.73;;
3993;SDS011;2011;48.238;13.948;2022-12-11T02:21:55;51.08;;;24.55;;
3993;SDS011;2011;48.238;13.948;2022-12-11T02:24:26;47.83;;;20.73;;
3993;SDS011;2011;48.238;13.948;2022-12-11T02:27:10;55.60;;;24.90;;
3993;SDS011;2011;48.238;13.948;2022-12-11T02:29:47;60.90;;;25.42;;
3993;SDS011;2011;48.238;13.948;2022-12-11T02:32:18;58.53;;;26.63;;
3993;SDS011;2011;48.238;13.948;2022-12-11T02:34:52;56.78;;;24.77;;
3993;SDS011;2011;48.238;13.948;2022-12-11T02:37:26;56.92;;;26.48;;
3993;SDS011;2011;48.238;13.948;2022-12-11T02:39:56;56.83;;;24.98;;
3993;SDS011;2011;48.238;13.948;2022-12-11T02:42:24;58.28;;;24.25;;
3993;SDS011;2011;48.238;13.948;2022-12-11T02:44:55;52.28;;;21.15;;
3993;SDS011;2011;48.238;13.948;2022-12-11T02:47:25;56.58;;;24.20;;
3993;SDS011;2011;48.238;13.948;2022-12-11T02:49:54;55.83;;;24.55;;
3993;SDS011;2011;48.238;13.948;2022-12-11T02:52:25;59.05;;;25.48;;
3993;SDS011;2011;48.238;13.948;2022-12-11T02:54:55;59.25;;;25.25;;
3993;SDS011;2011;48.238;13.948;2022-12-11T02:57:25;61.50;;;25.58;;
3993;SDS011;2011;48.238;13.948;2022-12-11T02:59:58;59.20;;;24.77;;
3993;SDS011;2011;48.238;13.948;2022-12-11T03:02:25;48.30;;;22.10;;
3993;SDS011;2011;48.238;13.948;2022-12-11T03:04:52;53.88;;;24.10;;
3993;SDS011;2011;48.238;13.948;2022-12-11T03:07:22;54.30;;;24.23;;
3993;SDS011;2011;48.238;13.948;2022-12-11T03:09:51;56.58;;;25.65;;
3993;SDS011;2011;48.238;13.948;2022-12-11T03:12:19;58.22;;;24.63;;
3993;SDS011;2011;48.238;13.948;2022-12-11T03:14:49;56.03;;;25.80;;
3993;SDS011;2011;48.238;13.948;2022-12-11T03:17:18;51.28;;;22.70;;
3993;SDS011;2011;48.238;13.948;2022-12-11T03:19:49;50.15;;;23.40;;
3993;SDS011;2011;48.238;13.948;2022-12-11T03:22:23;57.85;;;21.95;;
3993;SDS011;2011;48.238;13.948;2022-12-11T03:24:59;53.63;;;24.10;;
3993;SDS011;2011;48.238;13.948;2022-12-11T03:27:29;50.63;;;21.88;;
3993;SDS011;2011;48.238;13.948;2022-12-11T03:30:01;48.05;;;22.88;;
3993;SDS011;2011;48.238;13.948;2022-12-11T03:32:33;43.90;;;20.55;;
3993;SDS011;2011;48.238;13.948;2022-12-11T03:35:05;42.38;;;20.65;;
3993;SDS011;2011;48.238;13.948;2022-12-11T03:37:37;34.50;;;17.35;;
3993;SDS011;2011;48.238;13.948;2022-12-11T03:40:07;44.20;;;20.90;;
3993;SDS011;2011;48.238;13.948;2022-12-11T03:42:38;40.50;;;19.50;;
3993;SDS011;2011;48.238;13.948;2022-12-11T03:45:07;43.15;;;20.50;;
3993;SDS011;2011;48.238;13.948;2022-12-11T03:47:36;44.85;;;20.35;;
3993;SDS011;2011;48.238;13.948;2022-12-11T03:50:05;46.20;;;21.67;;
3993;SDS011;2011;48.238;13.948;2022-12-11T03:52:36;46.50;;;19.10;;
3993;SDS011;2011;48.238;13.948;2022-12-11T03:55:04;42.33;;;20.05;;
3993;SDS011;2011;48.238;13.948;2022-12-11T03:57:33;47.05;;;20.02;;
3993;SDS011;2011;48.238;13.948;2022-12-11T04:00:02;40.92;;;20.25;;
3993;SDS011;2011;48.238;13.948;2022-12-11T04:02:30;45.83;;;21.25;;
3993;SDS011;2011;48.238;13.948;2022-12-11T04:04:59;46.25;;;21.23;;
3993;SDS011;2011;48.238;13.948;2022-12-11T04:07:26;43.55;;;19.67;;
3993;SDS011;2011;48.238;13.948;2022-12-11T04:09:55;38.55;;;17.92;;
3993;SDS011;2011;48.238;13.948;2022-12-11T04:12:22;36.63;;;18.40;;
3993;SDS011;2011;48.238;13.948;2022-12-11T04:14:49;39.45;;;18.98;;
3993;SDS011;2011;48.238;13.948;2022-12-11T04:17:28;43.95;;;20.83;;
3993;SDS011;2011;48.238;13.948;2022-12-11T04:20:14;39.75;;;18.17;;
3993;SDS011;2011;48.238;13.948;2022-12-11T04:23:02;38.85;;;19.08;;
3993;SDS011;2011;48.238;13.948;2022-12-11T04:25:47;33.50;;;15.68;;
3993;SDS011;2011;48.238;13.948;2022-12-11T04:28:14;38.75;;;19.55;;
3993;SDS011;2011;48.238;13.948;2022-12-11T04:30:46;41.13;;;19.85;;
3993;SDS011;2011;48.238;13.948;2022-12-11T04:33:13;37.78;;;18.63;;
3993;SDS011;2011;48.238;13.948;2022-12-11T04:35:42;35.15;;;17.63;;
3993;SDS011;2011;48.238;13.948;2022-12-11T04:38:09;36.45;;;17.80;;
3993;SDS011;2011;48.238;13.948;2022-12-11T04:40:35;42.55;;;19.17;;
3993;SDS011;2011;48.238;13.948;2022-12-11T04:43:02;38.08;;;19.05;;
3993;SDS011;2011;48.238;13.948;2022-12-11T04:45:29;38.05;;;18.30;;
3993;SDS011;2011;48.238;13.948;2022-12-11T04:47:56;41.42;;;18.85;;
3993;SDS011;2011;48.238;13.948;2022-12-11T04:50:23;33.40;;;15.63;;
3993;SDS011;2011;48.238;13.948;2022-12-11T04:52:54;33.67;;;16.88;;
3993;SDS011;2011;48.238;13.948;2022-12-11T04:55:22;38.63;;;18.27;;
3993;SDS011;2011;48.238;13.948;2022-12-11T04:57:49;39.95;;;17.30;;
3993;SDS011;2011;48.238;13.948;2022-12-11T05:00:16;36.45;;;16.88;;
3993;SDS011;2011;48.238;13.948;2022-12-11T05:02:43;35.75;;;16.85;;
3993;SDS011;2011;48.238;13.948;2022-12-11T05:05:10;37.08;;;19.92;;
3993;SDS011;2011;48.238;13.948;2022-12-11T05:07:37;36.47;;;18.13;;
3993;SDS011;2011;48.238;13.948;2022-12-11T05:10:07;40.40;;;18.13;;
3993;SDS011;2011;48.238;13.948;2022-12-11T05:12:34;36.88;;;18.48;;
3993;SDS011;2011;48.238;13.948;2022-12-11T05:15:01;39.45;;;17.50;;
3993;SDS011;2011;48.238;13.948;2022-12-11T05:17:29;39.25;;;18.13;;
3993;SDS011;2011;48.238;13.948;2022-12-11T05:19:55;36.90;;;18.42;;
3993;SDS011;2011;48.238;13.948;2022-12-11T05:22:22;38.60;;;17.60;;
3993;SDS011;2011;48.238;13.948;2022-12-11T05:24:49;37.45;;;18.65;;
3993;SDS011;2011;48.238;13.948;2022-12-11T05:27:17;35.53;;;17.38;;
3993;SDS011;2011;48.238;13.948;2022-12-11T05:29:45;34.75;;;15.23;;
3993;SDS011;2011;48.238;13.948;2022-12-11T05:32:11;40.80;;;19.15;;
3993;SDS011;2011;48.238;13.948;2022-12-11T05:34:38;43.28;;;18.02;;
3993;SDS011;2011;48.238;13.948;2022-12-11T05:37:05;31.50;;;15.50;;
3993;SDS011;2011;48.238;13.948;2022-12-11T05:39:32;36.28;;;17.52;;
3993;SDS011;2011;48.238;13.948;2022-12-11T05:41:59;34.75;;;16.42;;
3993;SDS011;2011;48.238;13.948;2022-12-11T05:44:28;34.90;;;16.90;;
3993;SDS011;2011;48.238;13.948;2022-12-11T05:46:55;39.05;;;16.83;;
3993;SDS011;2011;48.238;13.948;2022-12-11T05:49:21;35.60;;;16.98;;
3993;SDS011;2011;48.238;13.948;2022-12-11T05:51:49;34.03;;;17.30;;
3993;SDS011;2011;48.238;13.948;2022-12-11T05:54:16;32.03;;;15.50;;
3993;SDS011;2011;48.238;13.948;2022-12-11T05:56:43;36.25;;;17.25;;
3993;SDS011;2011;48.238;13.948;2022-12-11T05:59:09;32.80;;;16.83;;
3993;SDS011;2011;48.238;13.948;2022-12-11T06:01:38;35.92;;;16.95;;
3993;SDS011;2011;48.238;13.948;2022-12-11T06:04:07;38.60;;;16.45;;
3993;SDS011;2011;48.238;13.948;2022-12-11T06:06:36;34.05;;;16.00;;
3993;SDS011;2011;48.238;13.948;2022-12-11T06:09:04;35.25;;;16.42;;
3993;SDS011;2011;48.238;13.948;2022-12-11T06:11:32;36.33;;;16.40;;
3993;SDS011;2011;48.238;13.948;2022-12-11T06:14:00;32.17;;;16.00;;
3993;SDS011;2011;48.238;13.948;2022-12-11T06:16:28;31.67;;;14.48;;
3993;SDS011;2011;48.238;13.948;2022-12-11T06:18:56;30.67;;;16.02;;
3993;SDS011;2011;48.238;13.948;2022-12-11T06:21:24;30.95;;;14.70;;
3993;SDS011;2011;48.238;13.948;2022-12-11T06:23:54;28.48;;;15.30;;
3993;SDS011;2011;48.238;13.948;2022-12-11T06:26:22;31.60;;;15.23;;
3993;SDS011;2011;48.238;13.948;2022-12-11T06:28:50;32.17;;;15.15;;
3993;SDS011;2011;48.238;13.948;2022-12-11T06:31:17;30.55;;;15.30;;
3993;SDS011;2011;48.238;13.948;2022-12-11T06:33:45;29.50;;;15.07;;
3993;SDS011;2011;48.238;13.948;2022-12-11T06:36:14;30.52;;;13.50;;
3993;SDS011;2011;48.238;13.948;2022-12-11T06:38:42;30.58;;;14.80;;
3993;SDS011;2011;48.238;13.948;2022-12-11T06:41:09;31.38;;;15.77;;
3993;SDS011;2011;48.238;13.948;2022-12-11T06:43:37;26.65;;;14.07;;
3993;SDS011;2011;48.238;13.948;2022-12-11T06:46:05;34.10;;;15.85;;
3993;SDS011;2011;48.238;13.948;2022-12-11T06:48:34;30.50;;;13.75;;
3993;SDS011;2011;48.238;13.948;2022-12-11T06:51:03;31.90;;;14.38;;
3993;SDS011;2011;48.238;13.948;2022-12-11T06:53:33;33.60;;;15.75;;
3993;SDS011;2011;48.238;13.948;2022-12-11T06:56:01;32.65;;;15.25;;
3993;SDS011;2011;48.238;13.948;2022-12-11T06:58:29;30.00;;;15.05;;
3993;SDS011;2011;48.238;13.948;2022-12-11T07:00:55;29.13;;;13.80;;
3993;SDS011;2011;48.238;13.948;2022-12-11T07:03:22;31.80;;;14.45;;
3993;SDS011;2011;48.238;13.948;2022-12-11T07:05:49;28.73;;;14.25;;
3993;SDS011;2011;48.238;13.948;2022-12-11T07:08:16;27.63;;;13.52;;
3993;SDS011;2011;48.238;13.948;2022-12-11T07:10:44;31.83;;;14.90;;
3993;SDS011;2011;48.238;13.948;2022-12-11T07:13:11;29.30;;;13.75;;
3993;SDS011;2011;48.238;13.948;2022-12-11T07:15:38;25.35;;;13.27;;
3993;SDS011;2011;48.238;13.948;2022-12-11T07:18:05;36.50;;;19.02;;
3993;SDS011;2011;48.238;13.948;2022-12-11T07:20:32;28.08;;;14.30;;
3993;SDS011;2011;48.238;13.948;2022-12-11T07:22:59;26.38;;;13.77;;
3993;SDS011;2011;48.238;13.948;2022-12-11T07:25:26;27.63;;;13.43;;
3993;SDS011;2011;48.238;13.948;2022-12-11T07:27:54;26.85;;;13.32;;
3993;SDS011;2011;48.238;13.948;2022-12-11T07:30:21;23.05;;;11.30;;
3993;SDS011;2011;48.238;13.948;2022-12-11T07:32:48;28.02;;;14.75;;
3993;SDS011;2011;48.238;13.948;2022-12-11T07:35:15;28.33;;;12.73;;
3993;SDS011;2011;48.238;13.948;2022-12-11T07:37:42;28.95;;;14.82;;
3993;SDS011;2011;48.238;13.948;2022-12-11T07:40:10;27.90;;;13.80;;
3993;SDS011;2011;48.238;13.948;2022-12-11T07:42:38;26.88;;;13.85;;
3993;SDS011;2011;48.238;13.948;2022-12-11T07:45:06;26.75;;;14.00;;
3993;SDS011;2011;48.238;13.948;2022-12-11T07:47:34;26.58;;;13.73;;
3993;SDS011;2011;48.238;13.948;2022-12-11T07:50:01;25.98;;;14.32;;
3993;SDS011;2011;48.238;13.948;2022-12-11T07:52:27;29.15;;;13.40;;
3993;SDS011;2011;48.238;13.948;2022-12-11T07:54:54;25.25;;;13.95;;
3993;SDS011;2011;48.238;13.948;2022-12-11T07:57:21;27.08;;;13.60;;
3993;SDS011;2011;48.238;13.948;2022-12-11T07:59:48;25.30;;;13.50;;
3993;SDS011;2011;48.238;13.948;2022-12-11T08:02:16;27.02;;;12.85;;
3993;SDS011;2011;48.238;13.948;2022-12-11T08:04:43;30.27;;;15.27;;
3993;SDS011;2011;48.238;13.948;2022-12-11T08:07:10;31.10;;;13.70;;
3993;SDS011;2011;48.238;13.948;2022-12-11T08:09:37;24.73;;;12.65;;
3993;SDS011;2011;48.238;13.948;2022-12-11T08:12:05;22.88;;;12.45;;
3993;SDS011;2011;48.238;13.948;2022-12-11T08:14:31;29.33;;;15.20;;
3993;SDS011;2011;48.238;13.948;2022-12-11T08:16:58;27.80;;;13.13;;
3993;SDS011;2011;48.238;13.948;2022-12-11T08:19:27;27.50;;;13.18;;
3993;SDS011;2011;48.238;13.948;2022-12-11T08:21:54;27.83;;;13.75;;
3993;SDS011;2011;48.238;13.948;2022-12-11T08:24:21;23.67;;;12.82;;
3993;SDS011;2011;48.238;13.948;2022-12-11T08:26:48;25.63;;;13.52;;
3993;SDS011;2011;48.238;13.948;2022-12-11T08:29:15;23.90;;;12.82;;
3993;SDS011;2011;48.238;13.948;2022-12-11T08:31:42;32.85;;;14.85;;
3993;SDS011;2011;48.238;13.948;2022-12-11T08:34:09;33.80;;;15.93;;
3993;SDS011;2011;48.238;13.948;2022-12-11T08:36:39;32.10;;;16.27;;
3993;SDS011;2011;48.238;13.948;2022-12-11T08:39:06;32.13;;;15.35;;
3993;SDS011;2011;48.238;13.948;2022-12-11T08:41:33;25.98;;;13.38;;
3993;SDS011;2011;48.238;13.948;2022-12-11T08:44:00;25.58;;;13.05;;
3993;SDS011;2011;48.238;13.948;2022-12-11T08:46:28;31.63;;;15.90;;
3993;SDS011;2011;48.238;13.948;2022-12-11T08:48:57;32.70;;;16.08;;
3993;SDS011;2011;48.238;13.948;2022-12-11T08:51:26;29.40;;;15.13;;
3993;SDS011;2011;48.238;13.948;2022-12-11T08:53:56;22.90;;;12.07;;
3993;SDS011;2011;48.238;13.948;2022-12-11T08:56:24;26.95;;;14.85;;
3993;SDS011;2011;48.238;13.948;2022-12-11T08:58:52;26.45;;;12.40;;
3993;SDS011;2011;48.238;13.948;2022-12-11T09:01:21;26.58;;;14.23;;
3993;SDS011;2011;48.238;13.948;2022-12-11T09:03:49;29.30;;;16.85;;
3993;SDS011;2011;48.238;13.948;2022-12-11T09:06:19;29.40;;;14.57;;
3993;SDS011;2011;48.238;13.948;2022-12-11T09:08:48;42.67;;;20.00;;
3993;SDS011;2011;48.238;13.948;2022-12-11T09:11:18;40.83;;;19.60;;
3993;SDS011;2011;48.238;13.948;2022-12-11T09:13:48;27.37;;;14.30;;
3993;SDS011;2011;48.238;13.948;2022-12-11T09:16:15;35.00;;;16.80;;
3993;SDS011;2011;48.238;13.948;2022-12-11T09:18:44;40.40;;;19.05;;
3993;SDS011;2011;48.238;13.948;2022-12-11T09:21:13;27.77;;;16.30;;
3993;SDS011;2011;48.238;13.948;2022-12-11T09:23:42;31.05;;;15.73;;
3993;SDS011;2011;48.238;13.948;2022-12-11T09:26:10;32.05;;;16.40;;
3993;SDS011;2011;48.238;13.948;2022-12-11T09:28:39;37.55;;;17.80;;
3993;SDS011;2011;48.238;13.948;2022-12-11T09:31:08;28.05;;;15.02;;
3993;SDS011;2011;48.238;13.948;2022-12-11T09:33:35;29.10;;;16.20;;
3993;SDS011;2011;48.238;13.948;2022-12-11T09:36:02;28.33;;;14.35;;
3993;SDS011;2011;48.238;13.948;2022-12-11T09:38:30;27.67;;;14.88;;
3993;SDS011;2011;48.238;13.948;2022-12-11T09:40:57;32.15;;;15.10;;
3993;SDS011;2011;48.238;13.948;2022-12-11T09:43:30;31.13;;;15.50;;
3993;SDS011;2011;48.238;13.948;2022-12-11T09:46:06;25.20;;;13.98;;
3993;SDS011;2011;48.238;13.948;2022-12-11T09:48:38;28.77;;;14.38;;
3993;SDS011;2011;48.238;13.948;2022-12-11T09:51:10;31.35;;;15.25;;
3993;SDS011;2011;48.238;13.948;2022-12-11T09:53:42;26.55;;;13.35;;
3993;SDS011;2011;48.238;13.948;2022-12-11T09:56:12;29.42;;;14.50;;
3993;SDS011;2011;48.238;13.948;2022-12-11T09:58:47;26.42;;;14.00;;
3993;SDS011;2011;48.238;13.948;2022-12-11T10:01:32;29.27;;;16.20;;
3993;SDS011;2011;48.238;13.948;2022-12-11T10:04:17;29.95;;;15.93;;
3993;SDS011;2011;48.238;13.948;2022-12-11T10:07:00;27.02;;;14.82;;
3993;SDS011;2011;48.238;13.948;2022-12-11T10:09:36;31.95;;;15.57;;
3993;SDS011;2011;48.238;13.948;2022-12-11T10:12:15;30.92;;;14.93;;
3993;SDS011;2011;48.238;13.948;2022-12-11T10:14:58;26.17;;;14.80;;
3993;SDS011;2011;48.238;13.948;2022-12-11T10:17:40;30.38;;;13.95;;
3993;SDS011;2011;48.238;13.948;2022-12-11T10:20:14;21.92;;;12.27;;
3993;SDS011;2011;48.238;13.948;2022-12-11T10:22:45;25.75;;;13.95;;
3993;SDS011;2011;48.238;13.948;2022-12-11T10:25:16;27.70;;;14.07;;
3993;SDS011;2011;48.238;13.948;2022-12-11T10:27:46;33.55;;;16.05;;
3993;SDS011;2011;48.238;13.948;2022-12-11T10:30:15;33.83;;;14.35;;
3993;SDS011;2011;48.238;13.948;2022-12-11T10:32:49;31.88;;;15.25;;
3993;SDS011;2011;48.238;13.948;2022-12-11T10:35:19;24.23;;;13.65;;
3993;SDS011;2011;48.238;13.948;2022-12-11T10:38:00;28.83;;;14.27;;
3993;SDS011;2011;48.238;13.948;2022-12-11T10:40:42;26.40;;;14.05;;
3993;SDS011;2011;48.238;13.948;2022-12-11T10:43:11;26.27;;;14.50;;
3993;SDS011;2011;48.238;13.948;2022-12-11T10:45:38;27.65;;;14.55;;
3993;SDS011;2011;48.238;13.948;2022-12-11T10:48:08;27.02;;;14.07;;
3993;SDS011;2011;48.238;13.948;2022-12-11T10:50:37;30.80;;;15.85;;
3993;SDS011;2011;48.238;13.948;2022-12-11T10:53:05;29.25;;;14.15;;
3993;SDS011;2011;48.238;13.948;2022-12-11T10:55:44;32.90;;;15.43;;
3993;SDS011;2011;48.238;13.948;2022-12-11T10:58:14;37.97;;;17.92;;
3993;SDS011;2011;48.238;13.948;2022-12-11T11:00:44;29.98;;;16.55;;
3993;SDS011;2011;48.238;13.948;2022-12-11T11:03:20;27.05;;;14.65;;
3993;SDS011;2011;48.238;13.948;2022-12-11T11:05:49;26.27;;;14.10;;
3993;SDS011;2011;48.238;13.948;2022-12-11T11:08:27;25.33;;;13.70;;
3993;SDS011;2011;48.238;13.948;2022-12-11T11:11:12;27.13;;;14.45;;
3993;SDS011;2011;48.238;13.948;2022-12-11T11:14:03;27.35;;;15.02;;
3993;SDS011;2011;48.238;13.948;2022-12-11T11:16:34;28.23;;;14.32;;
3993;SDS011;2011;48.238;13.948;2022-12-11T11:19:04;28.75;;;14.25;;
3993;SDS011;2011;48.238;13.948;2022-12-11T11:21:33;29.60;;;14.05;;
3993;SDS011;2011;48.238;13.948;2022-12-11T11:24:01;27.75;;;13.48;;
3993;SDS011;2011;48.238;13.948;2022-12-11T11:26:30;26.23;;;13.63;;
3993;SDS011;2011;48.238;13.948;2022-12-11T11:28:58;27.58;;;15.02;;
3993;SDS011;2011;48.238;13.948;2022-12-11T11:31:29;27.98;;;15.27;;
3993;SDS011;2011;48.238;13.948;2022-12-11T11:33:58;29.15;;;15.50;;
3993;SDS011;2011;48.238;13.948;2022-12-11T11:36:31;34.53;;;14.52;;
3993;SDS011;2011;48.238;13.948;2022-12-11T11:39:03;30.63;;;14.82;;
3993;SDS011;2011;48.238;13.948;2022-12-11T11:41:42;26.70;;;13.23;;
3993;SDS011;2011;48.238;13.948;2022-12-11T11:44:16;29.70;;;15.07;;
3993;SDS011;2011;48.238;13.948;2022-12-11T11:46:52;25.80;;;13.85;;
3993;SDS011;2011;48.238;13.948;2022-12-11T11:49:23;26.85;;;13.90;;
3993;SDS011;2011;48.238;13.948;2022-12-11T11:52:07;28.55;;;15.38;;
3993;SDS011;2011;48.238;13.948;2022-12-11T11:54:42;24.75;;;13.40;;
3993;SDS011;2011;48.238;13.948;2022-12-11T11:57:20;22.90;;;13.05;;
3993;SDS011;2011;48.238;13.948;2022-12-11T11:59:52;27.48;;;14.45;;
3993;SDS011;2011;48.238;13.948;2022-12-11T12:02:23;25.23;;;13.23;;
3993;SDS011;2011;48.238;13.948;2022-12-11T12:04:50;24.85;;;13.43;;
3993;SDS011;2011;48.238;13.948;2022-12-11T12:07:23;25.35;;;14.23;;
3993;SDS011;2011;48.238;13.948;2022-12-11T12:09:58;24.83;;;13.48;;
3993;SDS011;2011;48.238;13.948;2022-12-11T12:12:36;24.95;;;13.57;;
3993;SDS011;2011;48.238;13.948;2022-12-11T12:18:01;26.65;;;14.23;;
3993;SDS011;2011;48.238;13.948;2022-12-11T12:20:36;29.88;;;14.43;;
3993;SDS011;2011;48.238;13.948;2022-12-11T12:26:10;24.25;;;13.07;;
3993;SDS011;2011;48.238;13.948;2022-12-11T12:28:47;20.85;;;11.30;;
3993;SDS011;2011;48.238;13.948;2022-12-11T12:31:25;26.02;;;13.40;;
3993;SDS011;2011;48.238;13.948;2022-12-11T12:34:04;23.95;;;12.57;;
3993;SDS011;2011;48.238;13.948;2022-12-11T12:36:43;25.90;;;13.57;;
3993;SDS011;2011;48.238;13.948;2022-12-11T12:39:21;22.17;;;11.82;;
3993;SDS011;2011;48.238;13.948;2022-12-11T12:42:00;23.83;;;12.52;;
3993;SDS011;2011;48.238;13.948;2022-12-11T12:44:37;23.10;;;12.85;;
3993;SDS011;2011;48.238;13.948;2022-12-11T12:47:12;26.25;;;13.40;;
3993;SDS011;2011;48.238;13.948;2022-12-11T12:49:43;23.70;;;12.48;;
3993;SDS011;2011;48.238;13.948;2022-12-11T12:52:12;29.83;;;12.55;;
3993;SDS011;2011;48.238;13.948;2022-12-11T12:54:44;22.35;;;12.52;;
3993;SDS011;2011;48.238;13.948;2022-12-11T12:57:28;55.80;;;22.27;;
3993;SDS011;2011;48.238;13.948;2022-12-11T12:59:55;21.88;;;12.07;;
3993;SDS011;2011;48.238;13.948;2022-12-11T13:02:22;24.00;;;12.07;;
3993;SDS011;2011;48.238;13.948;2022-12-11T13:04:54;25.33;;;12.32;;
3993;SDS011;2011;48.238;13.948;2022-12-11T13:07:25;24.17;;;12.70;;
3993;SDS011;2011;48.238;13.948;2022-12-11T13:09:56;22.38;;;11.65;;
3993;SDS011;2011;48.238;13.948;2022-12-11T13:12:30;22.80;;;11.60;;
3993;SDS011;2011;48.238;13.948;2022-12-11T13:15:05;23.73;;;11.98;;
3993;SDS011;2011;48.238;13.948;2022-12-11T13:17:48;21.13;;;11.82;;
3993;SDS011;2011;48.238;13.948;2022-12-11T13:20:16;24.10;;;12.07;;
3993;SDS011;2011;48.238;13.948;2022-12-11T13:22:53;19.95;;;11.43;;
3993;SDS011;2011;48.238;13.948;2022-12-11T13:25:47;26.05;;;13.32;;
3993;SDS011;2011;48.238;13.948;2022-12-11T13:28:20;27.02;;;12.90;;
3993;SDS011;2011;48.238;13.948;2022-12-11T13:31:02;24.67;;;13.63;;
3993;SDS011;2011;48.238;13.948;2022-12-11T13:33:32;25.05;;;12.98;;
3993;SDS011;2011;48.238;13.948;2022-12-11T13:36:25;23.20;;;12.32;;
3993;SDS011;2011;48.238;13.948;2022-12-11T13:38:57;26.00;;;13.73;;
3993;SDS011;2011;48.238;13.948;2022-12-11T13:41:28;26.95;;;13.13;;
3993;SDS011;2011;48.238;13.948;2022-12-11T13:43:58;23.83;;;12.75;;
3993;SDS011;2011;48.238;13.948;2022-12-11T13:46:26;25.75;;;13.07;;
3993;SDS011;2011;48.238;13.948;2022-12-11T13:48:56;23.88;;;12.55;;
3993;SDS011;2011;48.238;13.948;2022-12-11T13:51:27;27.80;;;13.25;;
3993;SDS011;2011;48.238;13.948;2022-12-11T13:54:05;23.35;;;12.00;;
3993;SDS011;2011;48.238;13.948;2022-12-11T13:56:51;26.73;;;12.82;;
3993;SDS011;2011;48.238;13.948;2022-12-11T13:59:24;21.35;;;12.25;;
3993;SDS011;2011;48.238;13.948;2022-12-11T14:01:54;23.63;;;12.15;;
3993;SDS011;2011;48.238;13.948;2022-12-11T14:04:24;24.20;;;13.40;;
3993;SDS011;2011;48.238;13.948;2022-12-11T14:06:53;24.40;;;12.38;;
3993;SDS011;2011;48.238;13.948;2022-12-11T14:09:21;22.73;;;11.77;;
3993;SDS011;2011;48.238;13.948;2022-12-11T14:11:53;20.60;;;11.13;;
3993;SDS011;2011;48.238;13.948;2022-12-11T14:14:23;23.67;;;12.60;;
3993;SDS011;2011;48.238;13.948;2022-12-11T14:17:02;22.38;;;11.90;;
3993;SDS011;2011;48.238;13.948;2022-12-11T14:19:30;22.92;;;11.93;;
3993;SDS011;2011;48.238;13.948;2022-12-11T14:22:00;17.23;;;10.57;;
3993;SDS011;2011;48.238;13.948;2022-12-11T14:24:28;20.60;;;11.30;;
3993;SDS011;2011;48.238;13.948;2022-12-11T14:26:57;24.15;;;12.55;;
3993;SDS011;2011;48.238;13.948;2022-12-11T14:29:25;20.95;;;11.30;;
3993;SDS011;2011;48.238;13.948;2022-12-11T14:31:54;20.63;;;11.55;;
3993;SDS011;2011;48.238;13.948;2022-12-11T14:34:25;18.92;;;11.00;;
3993;SDS011;2011;48.238;13.948;2022-12-11T14:36:57;19.73;;;11.05;;
3993;SDS011;2011;48.238;13.948;2022-12-11T14:39:25;20.88;;;11.20;;
3993;SDS011;2011;48.238;13.948;2022-12-11T14:41:58;20.23;;;11.40;;
3993;SDS011;2011;48.238;13.948;2022-12-11T14:44:30;23.85;;;12.40;;
3993;SDS011;2011;48.238;13.948;2022-12-11T14:47:01;21.95;;;12.10;;
3993;SDS011;2011;48.238;13.948;2022-12-11T14:49:32;21.35;;;12.00;;
3993;SDS011;2011;48.238;13.948;2022-12-11T14:52:05;22.73;;;12.20;;
3993;SDS011;2011;48.238;13.948;2022-12-11T14:54:42;22.65;;;11.63;;
3993;SDS011;2011;48.238;13.948;2022-12-11T14:57:16;19.30;;;10.15;;